createdAt,value
2023-01-18T00:01:07.212Z,6.80
2023-01-18T00:03:34.911Z,6.78
2023-01-18T00:06:03.022Z,7.65
2023-01-18T00:08:30.641Z,6.22
2023-01-18T00:11:05.031Z,5.55
2023-01-18T00:13:32.423Z,5.53
2023-01-18T00:16:03.262Z,4.88
2023-01-18T00:18:30.458Z,5.15
2023-01-18T00:21:01.221Z,4.80
2023-01-18T00:23:28.764Z,5.20
2023-01-18T00:26:00.263Z,4.78
2023-01-18T00:28:27.424Z,4.20
2023-01-18T00:30:54.572Z,5.18
2023-01-18T00:33:21.674Z,5.13
2023-01-18T00:36:04.520Z,6.53
2023-01-18T00:38:32.021Z,5.13
2023-01-18T00:40:59.179Z,4.72
2023-01-18T00:43:38.836Z,5.70
2023-01-18T00:46:09.989Z,4.07
2023-01-18T00:48:37.214Z,5.70
2023-01-18T00:51:04.398Z,4.18
2023-01-18T00:53:31.712Z,4.65
2023-01-18T00:55:58.879Z,4.93
2023-01-18T00:58:26.081Z,5.70
2023-01-18T01:00:54.005Z,4.82
2023-01-18T01:03:21.827Z,4.70
2023-01-18T01:06:07.936Z,3.60
2023-01-18T01:08:35.230Z,5.07
2023-01-18T01:11:10.130Z,4.80
2023-01-18T01:13:56.238Z,4.65
2023-01-18T01:16:42.311Z,4.70
2023-01-18T01:19:28.416Z,4.82
2023-01-18T01:22:14.411Z,6.00
2023-01-18T01:25:00.435Z,4.70
2023-01-18T01:27:27.579Z,4.47
2023-01-18T01:29:54.685Z,5.53
2023-01-18T01:32:21.779Z,5.00
2023-01-18T01:34:49.106Z,4.88
2023-01-18T01:37:16.214Z,5.25
2023-01-18T01:39:43.299Z,4.82
2023-01-18T01:42:13.449Z,4.32
2023-01-18T01:44:42.845Z,5.43
2023-01-18T01:47:18.974Z,5.20
2023-01-18T01:49:47.893Z,5.15
2023-01-18T01:52:20.832Z,4.75
2023-01-18T01:54:50.311Z,4.40
2023-01-18T01:57:22.158Z,4.70
2023-01-18T02:00:12.409Z,4.68
2023-01-18T02:02:41.053Z,5.32
2023-01-18T02:05:08.823Z,5.32
2023-01-18T02:07:36.200Z,5.38
2023-01-18T02:10:04.261Z,5.07
2023-01-18T02:12:31.555Z,4.05
2023-01-18T02:14:59.043Z,5.30
2023-01-18T02:17:32.859Z,4.80
2023-01-18T02:20:21.895Z,4.53
2023-01-18T02:22:49.335Z,4.55
2023-01-18T02:25:34.598Z,4.88
2023-01-18T02:28:07.830Z,5.10
2023-01-18T02:30:38.443Z,4.88
2023-01-18T02:33:19.145Z,4.03
2023-01-18T02:35:51.901Z,4.75
2023-01-18T02:38:28.345Z,4.03
2023-01-18T02:41:05.401Z,4.78
2023-01-18T02:43:52.618Z,5.30
2023-01-18T02:46:35.631Z,4.65
2023-01-18T02:49:07.915Z,4.45
2023-01-18T02:51:35.349Z,4.68
2023-01-18T02:54:03.527Z,3.20
2023-01-18T02:56:30.620Z,4.28
2023-01-18T02:59:05.049Z,4.78
2023-01-18T03:01:44.492Z,4.15
2023-01-18T03:04:13.819Z,5.05
2023-01-18T03:09:08.128Z,4.82
2023-01-18T03:11:53.893Z,4.15
2023-01-18T03:14:40.073Z,4.85
2023-01-18T03:17:19.161Z,4.45
2023-01-18T03:20:09.249Z,4.47
2023-01-18T03:22:56.606Z,4.82
2023-01-18T03:25:33.451Z,4.70
2023-01-18T03:28:22.722Z,4.53
2023-01-18T03:31:09.986Z,4.70
2023-01-18T03:33:45.440Z,4.60
2023-01-18T03:36:29.414Z,4.75
2023-01-18T03:39:02.164Z,4.50
2023-01-18T03:41:31.310Z,4.30
2023-01-18T03:44:00.763Z,5.47
2023-01-18T03:46:29.620Z,4.60
2023-01-18T03:48:57.319Z,5.07
2023-01-18T03:51:47.507Z,3.95
2023-01-18T03:54:18.212Z,4.50
2023-01-18T03:57:00.866Z,4.32
2023-01-18T03:59:30.805Z,4.78
2023-01-18T04:01:57.932Z,5.28
2023-01-18T04:04:25.253Z,5.03
2023-01-18T04:06:52.414Z,4.95
2023-01-18T04:09:19.684Z,4.80
2023-01-18T04:11:46.778Z,4.95
2023-01-18T04:14:13.916Z,4.57
2023-01-18T04:16:41.251Z,4.78
2023-01-18T04:19:08.713Z,4.60
2023-01-18T04:21:36.143Z,4.18
2023-01-18T04:24:03.264Z,4.88
2023-01-18T04:26:30.401Z,5.10
2023-01-18T04:28:57.871Z,4.65
2023-01-18T04:31:25.183Z,4.93
2023-01-18T04:33:52.311Z,4.30
2023-01-18T04:36:20.248Z,4.88
2023-01-18T04:38:47.419Z,4.68
2023-01-18T04:41:14.849Z,4.63
2023-01-18T04:43:41.978Z,4.40
2023-01-18T04:46:09.097Z,4.75
2023-01-18T04:48:36.199Z,4.45
2023-01-18T04:51:03.440Z,4.50
2023-01-18T04:53:30.715Z,5.00
2023-01-18T04:55:58.794Z,4.40
2023-01-18T04:58:25.989Z,4.63
2023-01-18T05:00:53.233Z,4.32
2023-01-18T05:03:21.115Z,5.35
2023-01-18T05:05:48.549Z,5.13
2023-01-18T05:08:15.648Z,4.60
2023-01-18T05:10:42.776Z,4.28
2023-01-18T05:13:09.961Z,4.90
2023-01-18T05:15:37.258Z,4.90
2023-01-18T05:18:05.762Z,4.95
2023-01-18T05:20:33.041Z,5.18
2023-01-18T05:23:00.401Z,5.15
2023-01-18T05:25:27.709Z,4.47
2023-01-18T05:27:54.894Z,4.80
2023-01-18T05:30:22.012Z,5.30
2023-01-18T05:32:49.102Z,5.35
2023-01-18T05:35:16.393Z,4.45
2023-01-18T05:37:43.518Z,5.18
2023-01-18T05:40:11.375Z,5.03
2023-01-18T05:42:38.506Z,4.47
2023-01-18T05:45:05.920Z,5.22
2023-01-18T05:47:33.288Z,4.28
2023-01-18T05:50:00.549Z,4.50
2023-01-18T05:52:27.777Z,4.70
2023-01-18T05:54:54.904Z,5.30
2023-01-18T05:57:21.980Z,5.47
2023-01-18T05:59:49.257Z,4.47
2023-01-18T06:02:16.422Z,5.20
2023-01-18T06:04:44.407Z,4.88
2023-01-18T06:07:12.867Z,5.00
2023-01-18T06:09:41.475Z,5.95
2023-01-18T06:12:10.270Z,5.55
2023-01-18T06:14:37.746Z,5.35
2023-01-18T06:17:05.713Z,6.40
2023-01-18T06:19:32.841Z,5.63
2023-01-18T06:21:59.981Z,5.55
2023-01-18T06:24:27.063Z,6.10
2023-01-18T06:26:54.142Z,6.65
2023-01-18T06:29:21.410Z,6.20
2023-01-18T06:31:48.559Z,5.95
2023-01-18T06:34:15.760Z,6.28
2023-01-18T06:36:45.227Z,5.97
2023-01-18T06:41:39.699Z,6.28
2023-01-18T06:44:44.413Z,5.78
2023-01-18T06:47:12.134Z,5.65
2023-01-18T06:49:40.138Z,5.50
2023-01-18T06:52:07.264Z,6.22
2023-01-18T06:54:34.378Z,6.85
2023-01-18T06:57:01.476Z,6.88
2023-01-18T06:59:28.907Z,5.88
2023-01-18T07:01:56.186Z,9.05
2023-01-18T07:04:23.418Z,9.43
2023-01-18T07:06:50.643Z,8.57
2023-01-18T07:09:17.776Z,7.57
2023-01-18T07:11:45.997Z,6.97
2023-01-18T07:14:13.404Z,5.82
2023-01-18T07:16:40.556Z,6.35
2023-01-18T07:19:07.865Z,6.75
2023-01-18T07:21:35.713Z,6.28
2023-01-18T07:24:03.042Z,8.27
2023-01-18T07:26:30.516Z,5.85
2023-01-18T07:28:57.631Z,6.53
2023-01-18T07:31:25.147Z,5.88
2023-01-18T07:33:52.439Z,5.75
2023-01-18T07:36:20.601Z,5.97
2023-01-18T07:38:49.047Z,5.97
2023-01-18T07:41:17.165Z,6.22
2023-01-18T07:43:45.074Z,7.53
2023-01-18T07:46:13.563Z,5.35
2023-01-18T07:48:41.897Z,6.20
2023-01-18T07:51:10.457Z,6.10
2023-01-18T07:53:38.313Z,5.82
2023-01-18T07:56:11.641Z,6.18
2023-01-18T07:58:38.996Z,6.47
2023-01-18T08:01:08.872Z,6.50
2023-01-18T08:03:36.884Z,5.72
2023-01-18T08:06:05.103Z,5.78
2023-01-18T08:08:33.966Z,5.35
2023-01-18T08:11:02.013Z,5.82
2023-01-18T08:13:29.882Z,5.10
2023-01-18T08:15:59.613Z,7.95
2023-01-18T08:18:26.824Z,10.52
2023-01-18T08:20:55.253Z,12.10
2023-01-18T08:23:22.583Z,9.35
2023-01-18T08:25:49.824Z,11.13
2023-01-18T08:28:17.378Z,10.63
2023-01-18T08:30:45.679Z,9.68
2023-01-18T08:33:12.873Z,8.30
2023-01-18T08:35:41.757Z,6.70
2023-01-18T08:38:09.679Z,7.30
2023-01-18T08:40:36.835Z,6.95
2023-01-18T08:43:04.591Z,6.82
2023-01-18T08:45:32.160Z,6.45
2023-01-18T08:48:00.792Z,6.32
2023-01-18T08:50:28.400Z,6.20
2023-01-18T08:52:55.925Z,5.95
2023-01-18T08:55:24.000Z,5.90
2023-01-18T08:57:54.074Z,6.18
2023-01-18T09:00:23.841Z,5.82
2023-01-18T09:02:51.600Z,6.18
2023-01-18T09:05:18.815Z,5.65
2023-01-18T09:07:47.494Z,6.30
2023-01-18T09:10:14.981Z,5.68
2023-01-18T09:12:42.153Z,6.38
2023-01-18T09:15:09.572Z,6.15
2023-01-18T09:17:36.724Z,5.88
2023-01-18T09:20:07.633Z,6.30
2023-01-18T09:22:34.838Z,6.57
2023-01-18T09:25:02.092Z,6.18
2023-01-18T09:27:29.216Z,6.30
2023-01-18T09:29:56.528Z,6.78
2023-01-18T09:32:26.321Z,6.68
2023-01-18T09:34:54.129Z,6.50
2023-01-18T09:37:21.319Z,6.93
2023-01-18T09:39:52.106Z,6.90
2023-01-18T09:42:24.646Z,7.15
2023-01-18T09:44:58.620Z,6.85
2023-01-18T09:47:27.451Z,7.13
2023-01-18T09:49:58.518Z,7.30
2023-01-18T09:52:42.217Z,6.70
2023-01-18T09:55:15.244Z,6.90
2023-01-18T09:57:43.732Z,7.30
2023-01-18T10:00:17.145Z,7.00
2023-01-18T10:02:45.138Z,6.63
2023-01-18T10:05:14.255Z,7.13
2023-01-18T10:07:48.385Z,6.97
2023-01-18T10:10:19.014Z,6.47
2023-01-18T10:12:59.286Z,6.43
2023-01-18T10:15:29.714Z,6.95
2023-01-18T10:18:00.416Z,7.03
2023-01-18T10:20:47.268Z,6.40
2023-01-18T10:26:39.148Z,6.38
2023-01-18T10:29:15.735Z,5.63
2023-01-18T10:31:43.113Z,5.95
2023-01-18T10:34:20.707Z,6.47
2023-01-18T10:36:58.133Z,5.60
2023-01-18T10:39:40.263Z,5.75
2023-01-18T10:42:17.376Z,6.65
2023-01-18T10:44:44.607Z,6.93
2023-01-18T10:47:12.107Z,7.05
2023-01-18T10:49:41.241Z,6.25
2023-01-18T10:52:25.553Z,7.00
2023-01-18T10:54:52.768Z,6.88
2023-01-18T10:57:31.037Z,6.68
2023-01-18T10:59:58.805Z,6.32
2023-01-18T11:02:36.678Z,6.93
2023-01-18T11:05:22.420Z,6.70
2023-01-18T11:08:09.599Z,6.20
2023-01-18T11:10:38.128Z,6.65
2023-01-18T11:13:23.566Z,7.18
2023-01-18T11:16:00.956Z,6.57
2023-01-18T11:18:28.755Z,6.95
2023-01-18T11:20:56.588Z,7.00
2023-01-18T11:23:30.580Z,6.90
2023-01-18T11:26:00.611Z,6.88
2023-01-18T11:28:39.441Z,6.88
2023-01-18T11:31:09.147Z,5.97
2023-01-18T11:33:40.440Z,7.07
2023-01-18T11:36:07.892Z,6.72
2023-01-18T11:38:35.406Z,6.53
2023-01-18T11:41:15.220Z,7.38
2023-01-18T11:44:00.883Z,6.43
2023-01-18T11:46:35.155Z,5.40
2023-01-18T11:49:22.740Z,6.28
2023-01-18T11:54:28.989Z,6.45
2023-01-18T11:56:59.536Z,5.97
2023-01-18T11:59:31.197Z,6.30
2023-01-18T12:02:01.324Z,6.30
2023-01-18T12:04:41.085Z,6.68
2023-01-18T12:07:26.690Z,5.28
2023-01-18T12:09:57.586Z,4.10
2023-01-18T12:12:44.524Z,5.88
2023-01-18T12:18:59.694Z,5.32
2023-01-18T12:25:06.855Z,4.30
2023-01-18T12:27:48.108Z,5.18
2023-01-18T12:30:19.810Z,4.28
2023-01-18T12:32:50.421Z,4.70
2023-01-18T12:35:24.618Z,5.03
2023-01-18T12:37:52.027Z,4.43
2023-01-18T12:40:19.160Z,3.50
2023-01-18T12:42:55.670Z,4.00
2023-01-18T12:45:31.790Z,4.40
2023-01-18T12:48:20.980Z,3.70
2023-01-18T12:50:50.287Z,4.18
2023-01-18T12:53:23.424Z,3.30
2023-01-18T12:55:52.056Z,3.60
2023-01-18T12:58:26.371Z,3.42
2023-01-18T13:01:05.701Z,3.30
2023-01-18T13:03:39.332Z,3.70
2023-01-18T13:06:07.706Z,3.50
2023-01-18T13:08:34.813Z,3.40
2023-01-18T13:11:06.350Z,3.65
2023-01-18T13:13:34.128Z,2.72
2023-01-18T13:16:16.961Z,2.90
2023-01-18T13:18:51.543Z,2.70
2023-01-18T13:21:20.219Z,3.22
2023-01-18T13:23:47.376Z,3.90
2023-01-18T13:26:23.356Z,3.33
2023-01-18T13:29:06.335Z,2.88
2023-01-18T13:31:34.117Z,3.22
2023-01-18T13:34:01.685Z,3.00
2023-01-18T13:36:28.848Z,3.22
2023-01-18T13:39:01.267Z,2.38
2023-01-18T13:41:29.774Z,2.83
2023-01-18T13:44:02.014Z,3.03
2023-01-18T13:46:29.930Z,3.22
2023-01-18T13:49:02.587Z,3.08
2023-01-18T13:51:41.988Z,2.63
2023-01-18T13:54:15.914Z,2.78
2023-01-18T13:57:06.041Z,2.92
2023-01-18T13:59:40.955Z,2.92
2023-01-18T14:02:28.403Z,2.58
2023-01-18T14:05:07.352Z,2.90
2023-01-18T14:07:54.792Z,2.75
2023-01-18T14:12:50.156Z,2.75
2023-01-18T14:15:25.603Z,2.45
2023-01-18T14:17:58.575Z,2.33
2023-01-18T14:20:32.328Z,2.22
2023-01-18T14:23:18.347Z,2.42
2023-01-18T14:25:56.152Z,2.22
2023-01-18T14:28:36.557Z,2.70
2023-01-18T14:31:04.986Z,2.28
2023-01-18T14:33:34.448Z,2.35
2023-01-18T14:36:02.070Z,2.25
2023-01-18T14:38:30.318Z,3.17
2023-01-18T14:40:59.305Z,2.25
2023-01-18T14:45:57.567Z,2.40
2023-01-18T14:48:26.299Z,2.60
2023-01-18T14:50:54.677Z,2.92
2023-01-18T14:53:26.675Z,2.30
2023-01-18T14:56:03.993Z,2.47
2023-01-18T14:58:35.082Z,2.50
2023-01-18T15:01:02.775Z,2.40
2023-01-18T15:03:30.964Z,2.33
2023-01-18T15:06:06.780Z,2.40
2023-01-18T15:08:34.598Z,3.42
2023-01-18T15:11:05.011Z,2.30
2023-01-18T15:13:36.065Z,2.75
2023-01-18T15:16:03.985Z,2.63
2023-01-18T15:18:31.297Z,2.00
2023-01-18T15:21:05.959Z,2.00
2023-01-18T15:23:35.769Z,2.53
2023-01-18T15:26:03.219Z,2.75
2023-01-18T15:28:33.865Z,2.70
2023-01-18T15:31:05.793Z,2.75
2023-01-18T15:33:33.846Z,3.45
2023-01-18T15:36:01.598Z,3.55
2023-01-18T15:38:28.847Z,5.20
2023-01-18T15:40:59.181Z,3.97
2023-01-18T15:43:34.851Z,3.20
2023-01-18T15:46:02.359Z,3.10
2023-01-18T15:48:32.017Z,3.30
2023-01-18T15:51:05.747Z,3.85
2023-01-18T15:53:40.172Z,3.42
2023-01-18T15:56:08.686Z,3.20
2023-01-18T15:58:37.787Z,5.93
2023-01-18T16:03:37.426Z,3.92
2023-01-18T16:06:32.401Z,4.70
2023-01-18T16:09:00.463Z,4.28
2023-01-18T16:11:32.204Z,4.93
2023-01-18T16:14:00.385Z,3.85
2023-01-18T16:16:28.156Z,4.72
2023-01-18T16:19:15.685Z,3.28
2023-01-18T16:21:47.544Z,3.75
2023-01-18T16:24:20.332Z,3.42
2023-01-18T16:26:47.574Z,4.10
2023-01-18T16:29:14.907Z,3.10
2023-01-18T16:31:43.778Z,3.20
2023-01-18T16:34:18.720Z,3.45
2023-01-18T16:36:46.005Z,3.28
2023-01-18T16:39:13.176Z,3.88
2023-01-18T16:41:41.564Z,3.30
2023-01-18T16:44:11.278Z,2.92
2023-01-18T16:46:38.480Z,2.80
2023-01-18T16:49:06.610Z,2.80
2023-01-18T16:51:33.826Z,3.38
2023-01-18T16:54:01.460Z,3.00
2023-01-18T16:56:28.612Z,2.90
2023-01-18T16:58:55.752Z,2.85
2023-01-18T17:01:23.032Z,2.90
2023-01-18T17:03:50.939Z,3.20
2023-01-18T17:06:20.357Z,3.10
2023-01-18T17:08:49.116Z,4.90
2023-01-18T17:11:17.498Z,3.00
2023-01-18T17:13:45.042Z,2.63
2023-01-18T17:16:15.870Z,2.70
2023-01-18T17:18:43.123Z,2.33
2023-01-18T17:21:10.920Z,2.80
2023-01-18T17:23:39.827Z,2.30
2023-01-18T17:26:07.910Z,2.03
2023-01-18T17:28:35.142Z,3.00
2023-01-18T17:31:02.355Z,3.88
2023-01-18T17:33:30.544Z,4.10
2023-01-18T17:35:57.674Z,3.60
2023-01-18T17:38:28.887Z,3.63
2023-01-18T17:40:58.165Z,5.82
2023-01-18T17:43:34.286Z,4.20
2023-01-18T17:46:05.987Z,3.97
2023-01-18T17:48:33.421Z,3.83
2023-01-18T17:51:00.780Z,3.30
2023-01-18T17:53:28.208Z,3.00
2023-01-18T17:55:55.558Z,3.83
2023-01-18T17:58:23.068Z,3.45
2023-01-18T18:00:50.258Z,3.33
2023-01-18T18:03:17.476Z,4.22
2023-01-18T18:05:45.255Z,3.50
2023-01-18T18:08:12.383Z,3.15
2023-01-18T18:10:39.684Z,3.45
2023-01-18T18:13:06.922Z,3.92
2023-01-18T18:15:34.035Z,3.47
2023-01-18T18:18:01.173Z,4.95
2023-01-18T18:20:28.297Z,4.35
2023-01-18T18:22:55.488Z,3.85
2023-01-18T18:25:22.617Z,5.13
2023-01-18T18:27:49.774Z,4.60
2023-01-18T18:30:17.680Z,4.82
2023-01-18T18:32:44.961Z,4.45
2023-01-18T18:35:24.394Z,4.80
2023-01-18T18:37:53.801Z,4.03
2023-01-18T18:40:21.381Z,4.18
2023-01-18T18:43:01.346Z,4.65
2023-01-18T18:45:30.400Z,4.43
2023-01-18T18:47:57.735Z,4.93
2023-01-18T18:50:24.883Z,5.32
2023-01-18T18:52:52.091Z,5.60
2023-01-18T18:55:19.317Z,6.07
2023-01-18T18:57:46.540Z,4.25
2023-01-18T19:00:14.172Z,3.78
2023-01-18T19:02:41.438Z,4.75
2023-01-18T19:05:09.004Z,4.60
2023-01-18T19:07:36.217Z,4.38
2023-01-18T19:10:03.898Z,4.38
2023-01-18T19:12:32.050Z,3.60
2023-01-18T19:14:59.546Z,3.88
2023-01-18T19:17:30.894Z,4.95
2023-01-18T19:19:58.855Z,4.47
2023-01-18T19:22:26.347Z,4.07
2023-01-18T19:24:53.494Z,3.88
2023-01-18T19:27:21.757Z,4.32
2023-01-18T19:29:48.930Z,5.38
2023-01-18T19:32:16.397Z,5.60
2023-01-18T19:34:43.621Z,6.60
2023-01-18T19:37:13.404Z,4.82
2023-01-18T19:39:40.629Z,5.88
2023-01-18T19:42:08.928Z,9.40
2023-01-18T19:44:36.051Z,5.50
2023-01-18T19:47:03.579Z,5.35
2023-01-18T19:49:30.866Z,4.40
2023-01-18T19:51:57.992Z,6.05
2023-01-18T19:54:25.247Z,4.88
2023-01-18T19:56:53.964Z,4.38
2023-01-18T19:59:21.334Z,4.28
2023-01-18T20:01:48.554Z,4.80
2023-01-18T20:04:15.950Z,4.15
2023-01-18T20:06:46.192Z,4.10
2023-01-18T20:09:27.034Z,4.65
2023-01-18T20:11:56.908Z,4.03
2023-01-18T20:14:30.650Z,4.70
2023-01-18T20:17:01.090Z,4.60
2023-01-18T20:19:28.259Z,5.00
2023-01-18T20:21:55.488Z,4.90
2023-01-18T20:24:22.608Z,4.47
2023-01-18T20:26:50.147Z,5.05
2023-01-18T20:29:18.750Z,6.05
2023-01-18T20:31:49.972Z,4.93
2023-01-18T20:34:19.100Z,6.00
2023-01-18T20:36:49.865Z,4.63
2023-01-18T20:39:20.243Z,5.55
2023-01-18T20:41:50.064Z,5.10
2023-01-18T20:44:17.741Z,5.88
2023-01-18T20:46:46.776Z,4.75
2023-01-18T20:49:14.659Z,5.53
2023-01-18T20:51:41.781Z,4.68
2023-01-18T20:54:09.076Z,5.07
2023-01-18T20:56:36.435Z,4.90
2023-01-18T20:59:03.812Z,4.38
2023-01-18T21:01:33.689Z,5.00
2023-01-18T21:04:02.412Z,5.35
2023-01-18T21:06:30.128Z,5.10
2023-01-18T21:08:58.284Z,4.80
2023-01-18T21:11:26.848Z,4.80
2023-01-18T21:13:59.293Z,4.90
2023-01-18T21:16:30.488Z,5.22
2023-01-18T21:18:59.222Z,5.47
2023-01-18T21:21:30.225Z,4.45
2023-01-18T21:23:57.494Z,5.22
2023-01-18T21:26:24.682Z,4.40
2023-01-18T21:28:51.822Z,5.43
2023-01-18T21:31:19.005Z,5.03
2023-01-18T21:33:46.418Z,5.40
2023-01-18T21:36:14.978Z,4.40
2023-01-18T21:38:42.161Z,4.22
2023-01-18T21:41:28.392Z,4.82
2023-01-18T21:44:15.807Z,5.28
2023-01-18T21:46:51.909Z,3.88
2023-01-18T21:52:45.344Z,3.10
2023-01-18T21:55:13.864Z,4.05
2023-01-18T21:57:42.135Z,3.60
2023-01-18T22:00:09.657Z,4.57
2023-01-18T22:02:37.337Z,4.55
2023-01-18T22:05:05.134Z,3.67
2023-01-18T22:11:14.674Z,2.45
2023-01-18T22:13:41.778Z,2.45
2023-01-18T22:16:09.425Z,2.38
2023-01-18T22:18:36.556Z,2.47
2023-01-18T22:21:04.080Z,2.10
2023-01-18T22:23:31.175Z,2.20
2023-01-18T22:25:58.273Z,2.08
2023-01-18T22:28:25.476Z,1.88
2023-01-18T22:30:52.716Z,1.50
2023-01-18T22:33:19.952Z,1.83
2023-01-18T22:35:47.054Z,1.70
2023-01-18T22:38:14.397Z,2.15
2023-01-18T22:40:41.839Z,2.10
2023-01-18T22:43:51.382Z,2.25
2023-01-18T22:46:19.837Z,2.25
2023-01-18T22:48:47.149Z,2.67
2023-01-18T22:51:16.540Z,3.80
2023-01-18T22:53:44.668Z,2.97
2023-01-18T22:56:13.545Z,3.75
2023-01-18T22:58:41.029Z,4.13
2023-01-18T23:01:21.891Z,3.42
2023-01-18T23:03:50.289Z,4.45
2023-01-18T23:06:18.294Z,4.82
2023-01-18T23:08:45.955Z,4.90
2023-01-18T23:11:14.649Z,5.80
2023-01-18T23:13:42.725Z,6.38
2023-01-18T23:16:32.785Z,5.78
2023-01-18T23:19:00.289Z,4.82
2023-01-18T23:21:27.398Z,4.40
2023-01-18T23:23:54.680Z,4.70
2023-01-18T23:26:21.956Z,5.00
2023-01-18T23:28:49.081Z,4.90
2023-01-18T23:31:16.981Z,5.70
2023-01-18T23:33:44.196Z,5.38
2023-01-18T23:36:12.328Z,5.93
2023-01-18T23:42:27.105Z,5.28
2023-01-18T23:45:13.484Z,5.60
2023-01-18T23:47:59.596Z,5.15
2023-01-18T23:50:46.196Z,5.13
2023-01-18T23:53:32.621Z,6.22
2023-01-18T23:56:00.097Z,5.25
2023-01-18T23:58:27.676Z,5.65
